Time;durP1;ratioP1;P1;durP2;ratioP2;P2;SDS_P1;SDS_P2;PMS_P1;PMS_P2;Temp;Humidity;BMP_temperature;BMP_pressure;BME280_temperature;BME280_humidity;BME280_pressure;Samples;Min_cycle;Max_cycle;Signal;HPM_P1;HPM_P2
2021/03/25 00:01:46;;;;;;;18.27;9.55;;;2.80;99.90;;;;;;5032801;28;20041;-73
2021/03/25 00:04:11;;;;;;;20.50;8.57;;;2.80;99.90;;;;;;5032449;28;20053;-73
2021/03/25 00:06:40;;;;;;;20.38;8.77;;;2.80;99.90;;;;;;5030277;28;20064;-73
2021/03/25 00:09:16;;;;;;;18.75;8.85;;;2.80;99.90;;;;;;5044172;28;20048;-73
2021/03/25 00:11:42;;;;;;;21.15;8.80;;;2.70;99.90;;;;;;5050878;28;20040;-73
2021/03/25 00:14:08;;;;;;;19.83;9.32;;;2.70;99.90;;;;;;5053047;28;20017;-73
2021/03/25 00:16:33;;;;;;;18.92;9.02;;;2.60;99.90;;;;;;5052518;28;20049;-73
2021/03/25 00:18:59;;;;;;;21.45;9.85;;;2.60;99.90;;;;;;5052770;28;20373;-73
2021/03/25 00:21:26;;;;;;;20.40;9.35;;;2.50;99.90;;;;;;5051400;28;20036;-73
2021/03/25 00:23:52;;;;;;;19.13;9.15;;;2.60;99.90;;;;;;5051781;28;20112;-73
2021/03/25 00:26:18;;;;;;;22.08;9.60;;;2.60;99.90;;;;;;5052575;28;20025;-73
2021/03/25 00:28:44;;;;;;;21.65;8.95;;;2.50;99.90;;;;;;5052866;28;20035;-73
2021/03/25 00:31:09;;;;;;;19.20;9.23;;;2.60;99.90;;;;;;5051028;28;20484;-73
2021/03/25 00:33:35;;;;;;;19.75;9.07;;;2.50;99.90;;;;;;5052808;28;20025;-73
2021/03/25 00:36:01;;;;;;;20.15;9.02;;;2.60;99.90;;;;;;5051715;28;20025;-73
2021/03/25 00:38:26;;;;;;;17.38;8.60;;;2.50;99.90;;;;;;5052580;28;20381;-73
2021/03/25 00:40:52;;;;;;;16.40;7.63;;;2.40;99.90;;;;;;5072139;28;20036;-73
2021/03/25 00:43:22;;;;;;;15.23;7.40;;;2.40;99.90;;;;;;5069384;28;20086;-73
2021/03/25 00:45:50;;;;;;;15.98;7.70;;;2.40;99.90;;;;;;5049177;28;20523;-73
2021/03/25 00:48:18;;;;;;;17.75;7.57;;;2.40;99.90;;;;;;5051572;28;20041;-73
2021/03/25 00:50:47;;;;;;;20.70;7.88;;;2.30;99.90;;;;;;5050939;28;20488;-72
2021/03/25 00:53:20;;;;;;;19.08;7.70;;;2.30;99.90;;;;;;5032614;28;20108;-73
2021/03/25 00:55:46;;;;;;;16.73;8.32;;;2.30;99.90;;;;;;5031332;28;20036;-73
2021/03/25 00:58:12;;;;;;;19.40;8.63;;;2.20;99.90;;;;;;5031764;28;20087;-73
2021/03/25 01:00:44;;;;;;;18.42;8.68;;;2.20;99.90;;;;;;5030402;28;20033;-73
2021/03/25 01:03:12;;;;;;;20.67;8.20;;;2.20;99.90;;;;;;5032613;28;20056;-73
2021/03/25 01:05:38;;;;;;;21.35;8.18;;;2.10;99.90;;;;;;5031206;28;20049;-73
2021/03/25 01:08:04;;;;;;;22.48;9.20;;;2.10;99.90;;;;;;5032041;28;20025;-73
2021/03/25 01:10:38;;;;;;;17.73;8.80;;;2.00;99.90;;;;;;5036591;28;20116;-73
2021/03/25 01:13:11;;;;;;;19.50;8.80;;;2.00;99.90;;;;;;5032360;28;20420;-73
2021/03/25 01:15:36;;;;;;;20.08;8.32;;;1.90;99.90;;;;;;5030915;28;20057;-73
2021/03/25 01:18:06;;;;;;;15.35;6.50;;;1.90;99.90;;;;;;5030352;28;20061;-73
2021/03/25 01:20:35;;;;;;;18.40;7.57;;;1.90;99.90;;;;;;5036592;28;20025;-73
2021/03/25 01:23:02;;;;;;;16.00;7.65;;;1.90;99.90;;;;;;5050687;28;20027;-73
2021/03/25 01:25:28;;;;;;;18.08;8.75;;;1.80;99.90;;;;;;5051707;28;20051;-73
2021/03/25 01:28:01;;;;;;;13.43;7.47;;;1.80;99.90;;;;;;5033080;28;20029;-73
2021/03/25 01:30:30;;;;;;;18.45;8.75;;;1.80;99.90;;;;;;5050053;28;20029;-73
2021/03/25 01:32:58;;;;;;;22.77;8.77;;;1.70;99.90;;;;;;5051816;28;20025;-73
2021/03/25 01:35:24;;;;;;;20.05;8.13;;;1.70;99.90;;;;;;5050629;28;20029;-73
2021/03/25 01:37:51;;;;;;;20.13;8.27;;;1.70;99.90;;;;;;5049818;28;20037;-73
2021/03/25 01:40:23;;;;;;;20.13;8.95;;;1.70;99.90;;;;;;5049978;28;20467;-73
2021/03/25 01:42:49;;;;;;;21.70;9.75;;;1.70;99.90;;;;;;5051164;28;20032;-73
2021/03/25 01:45:30;;;;;;;18.55;7.75;;;1.70;99.90;;;;;;5050432;28;20474;-73
2021/03/25 01:48:00;;;;;;;19.48;8.55;;;1.70;99.90;;;;;;5049768;28;20514;-73
2021/03/25 01:50:26;;;;;;;19.13;8.00;;;1.70;99.90;;;;;;5049689;28;20064;-73
2021/03/25 01:52:55;;;;;;;21.38;9.30;;;1.60;99.90;;;;;;5049954;28;20064;-73
2021/03/25 01:55:46;;;;;;;25.20;10.50;;;1.60;99.90;;;;;;5049116;28;20029;-73
2021/03/25 01:58:15;;;;;;;19.88;9.73;;;1.60;99.90;;;;;;5048080;28;20103;-73
2021/03/25 02:01:05;;;;;;;16.50;8.32;;;1.60;99.90;;;;;;5048189;28;20521;-73
2021/03/25 02:04:17;;;;;;;23.17;9.65;;;1.60;99.90;;;;;;5048846;28;20170;-73
2021/03/25 02:06:52;;;;;;;20.00;9.25;;;1.60;99.90;;;;;;5048325;28;20047;-73
2021/03/25 02:09:42;;;;;;;26.65;11.00;;;1.60;99.90;;;;;;5049242;28;20025;-73
2021/03/25 02:12:56;;;;;;;25.70;9.80;;;1.60;99.90;;;;;;5050414;28;20036;-73
2021/03/25 02:15:32;;;;;;;20.55;10.15;;;1.60;99.90;;;;;;5049879;28;20495;-73
2021/03/25 02:18:09;;;;;;;17.58;9.20;;;1.60;99.90;;;;;;5049302;28;20060;-73
2021/03/25 02:21:35;;;;;;;22.40;8.77;;;1.60;99.90;;;;;;5048936;28;20036;-73
2021/03/25 02:24:10;;;;;;;13.57;6.95;;;1.60;99.90;;;;;;5049470;28;20040;-73
2021/03/25 02:26:42;;;;;;;22.40;8.75;;;1.50;99.90;;;;;;5048803;28;20024;-73
2021/03/25 02:29:22;;;;;;;22.38;8.75;;;1.50;99.90;;;;;;5050821;28;20389;-73
2021/03/25 02:31:54;;;;;;;21.50;9.50;;;1.50;99.90;;;;;;5044840;28;20029;-73
2021/03/25 02:34:25;;;;;;;21.38;9.82;;;1.50;99.90;;;;;;5029583;28;20025;-73
2021/03/25 02:37:10;;;;;;;17.25;8.45;;;1.40;99.90;;;;;;5028921;28;20029;-73
2021/03/25 02:40:02;;;;;;;20.40;8.70;;;1.40;99.90;;;;;;5029452;28;20026;-73
2021/03/25 02:42:44;;;;;;;20.48;8.93;;;1.30;99.90;;;;;;5028649;28;20124;-73
2021/03/25 02:45:33;;;;;;;14.90;8.20;;;1.30;99.90;;;;;;5029297;28;20037;-73
2021/03/25 02:48:14;;;;;;;22.42;9.23;;;1.30;99.90;;;;;;5028903;28;20029;-73
2021/03/25 02:50:45;;;;;;;18.17;8.57;;;1.30;99.90;;;;;;5029866;28;20068;-73
2021/03/25 02:53:24;;;;;;;21.02;9.15;;;1.30;99.90;;;;;;5030489;28;20037;-73
2021/03/25 02:55:54;;;;;;;16.08;8.45;;;1.30;99.90;;;;;;5029123;28;20029;-73
2021/03/25 02:58:29;;;;;;;17.50;9.02;;;1.20;99.90;;;;;;5028888;28;20037;-73
2021/03/25 03:01:00;;;;;;;18.38;8.45;;;1.20;99.90;;;;;;5028437;28;20037;-73
2021/03/25 03:03:33;;;;;;;20.90;10.35;;;1.20;99.90;;;;;;5029203;28;20040;-73
2021/03/25 03:06:11;;;;;;;18.63;8.63;;;1.20;99.90;;;;;;5029100;28;20064;-73
2021/03/25 03:08:46;;;;;;;21.20;9.20;;;1.20;99.90;;;;;;5030230;28;20040;-73
2021/03/25 03:11:27;;;;;;;18.17;8.38;;;1.20;99.90;;;;;;5028456;28;20033;-73
2021/03/25 03:13:58;;;;;;;18.23;7.28;;;1.10;99.90;;;;;;5030193;28;20028;-73
2021/03/25 03:16:56;;;;;;;21.30;8.75;;;1.10;99.90;;;;;;5028405;28;20111;-73
2021/03/25 03:19:26;;;;;;;19.17;8.30;;;1.10;99.90;;;;;;5025878;28;20044;-73
2021/03/25 03:21:58;;;;;;;21.48;8.85;;;1.00;99.90;;;;;;5028453;28;20034;-73
2021/03/25 03:24:51;;;;;;;16.63;7.93;;;1.00;99.90;;;;;;5048946;28;20083;-73
2021/03/25 03:28:01;;;;;;;16.90;7.82;;;1.00;99.90;;;;;;5028530;28;20047;-73
2021/03/25 03:30:35;;;;;;;17.67;7.97;;;1.00;99.90;;;;;;5028657;28;20515;-73
2021/03/25 03:33:26;;;;;;;18.55;8.02;;;1.00;99.90;;;;;;5033520;28;20039;-73
2021/03/25 03:36:00;;;;;;;15.68;7.70;;;1.00;99.90;;;;;;5052296;28;20040;-73
2021/03/25 03:38:48;;;;;;;17.40;6.43;;;1.00;99.90;;;;;;5068381;28;20093;-73
2021/03/25 03:41:52;;;;;;;16.38;8.50;;;1.00;99.90;;;;;;5068119;28;20090;-73
2021/03/25 03:44:25;;;;;;;19.17;8.43;;;0.90;99.90;;;;;;5068497;28;20491;-73
2021/03/25 03:46:53;;;;;;;19.02;8.20;;;0.90;99.90;;;;;;5068226;28;20076;-73
2021/03/25 03:50:01;;;;;;;15.85;7.03;;;0.90;99.90;;;;;;5068760;28;20120;-73
2021/03/25 03:52:32;;;;;;;18.05;8.48;;;0.90;99.90;;;;;;5067490;28;20032;-73
2021/03/25 03:55:06;;;;;;;21.17;8.75;;;0.90;99.90;;;;;;5068357;28;20107;-73
2021/03/25 03:58:04;;;;;;;23.90;10.00;;;0.80;99.90;;;;;;5068067;28;20028;-73
2021/03/25 04:00:35;;;;;;;22.25;9.07;;;0.80;99.90;;;;;;5068191;28;20025;-73
2021/03/25 04:03:25;;;;;;;24.80;9.60;;;0.80;99.90;;;;;;5068751;28;20035;-73
2021/03/25 04:06:10;;;;;;;19.67;9.00;;;0.80;99.90;;;;;;5069160;28;20043;-73
2021/03/25 04:09:10;;;;;;;19.45;9.20;;;0.80;99.90;;;;;;5068669;28;20045;-73
2021/03/25 04:12:20;;;;;;;20.13;8.10;;;0.80;99.90;;;;;;5047790;28;20039;-73
2021/03/25 04:14:53;;;;;;;16.73;8.35;;;0.80;99.90;;;;;;5048303;28;20032;-73
2021/03/25 04:17:33;;;;;;;15.88;7.30;;;0.80;99.90;;;;;;5049165;28;20392;-73
2021/03/25 04:20:11;;;;;;;19.60;8.15;;;0.80;99.90;;;;;;5051868;28;20029;-73
2021/03/25 04:23:08;;;;;;;17.27;8.77;;;0.70;99.90;;;;;;5051689;28;20162;-73
2021/03/25 04:25:43;;;;;;;17.98;8.20;;;0.70;99.90;;;;;;5053331;28;20074;-73
2021/03/25 04:28:21;;;;;;;21.85;9.27;;;0.70;99.90;;;;;;5052735;28;20029;-73
2021/03/25 04:30:52;;;;;;;19.33;8.88;;;0.70;99.90;;;;;;5052491;28;20033;-73
2021/03/25 04:33:21;;;;;;;18.65;8.75;;;0.70;99.90;;;;;;5036970;28;20025;-74
2021/03/25 04:35:47;;;;;;;16.83;8.05;;;0.70;99.90;;;;;;5033057;28;20031;-73
2021/03/25 04:38:35;;;;;;;19.77;8.88;;;0.70;99.90;;;;;;5031164;28;20037;-73
2021/03/25 04:41:02;;;;;;;21.95;9.18;;;0.60;99.90;;;;;;5032200;28;20060;-73
2021/03/25 04:43:37;;;;;;;18.70;9.80;;;0.60;99.90;;;;;;5014937;28;20084;-73
2021/03/25 04:46:28;;;;;;;19.98;8.48;;;0.60;99.90;;;;;;5039716;28;20028;-73
2021/03/25 04:49:01;;;;;;;17.60;8.43;;;0.50;99.90;;;;;;5072827;28;20120;-73
2021/03/25 04:51:28;;;;;;;22.55;9.13;;;0.50;99.90;;;;;;5072169;28;20071;-73
2021/03/25 04:54:09;;;;;;;22.92;9.60;;;0.50;99.90;;;;;;5043748;28;20503;-73
2021/03/25 04:56:37;;;;;;;17.88;8.20;;;0.50;99.90;;;;;;5048404;28;20051;-73
2021/03/25 04:59:03;;;;;;;21.02;8.70;;;0.50;99.90;;;;;;5050860;28;20090;-73
2021/03/25 05:01:33;;;;;;;19.35;9.18;;;0.50;99.90;;;;;;5050534;28;20430;-73
2021/03/25 05:04:05;;;;;;;16.33;8.85;;;0.50;99.90;;;;;;5046207;28;20021;-73
2021/03/25 05:07:12;;;;;;;23.73;9.40;;;0.50;99.90;;;;;;5051842;28;20033;-74
2021/03/25 05:09:38;;;;;;;19.15;7.97;;;0.50;99.90;;;;;;5033172;28;20052;-73
2021/03/25 05:12:05;;;;;;;20.55;9.07;;;0.50;99.90;;;;;;5032543;28;20372;-73
2021/03/25 05:14:30;;;;;;;21.25;8.68;;;0.50;99.90;;;;;;5050993;28;20112;-73
2021/03/25 05:17:12;;;;;;;20.90;9.10;;;0.50;99.90;;;;;;5051558;28;20112;-73
2021/03/25 05:19:53;;;;;;;23.90;9.48;;;0.50;99.90;;;;;;5052355;28;20025;-73
2021/03/25 05:22:54;;;;;;;20.27;8.50;;;0.50;99.90;;;;;;5051312;28;20040;-73
2021/03/25 05:25:23;;;;;;;25.15;9.63;;;0.50;99.90;;;;;;5049335;28;20495;-73
2021/03/25 05:28:03;;;;;;;17.67;8.50;;;0.50;99.90;;;;;;5013841;28;20048;-73
2021/03/25 05:30:33;;;;;;;14.60;7.90;;;0.60;99.90;;;;;;5047996;28;20021;-73
2021/03/25 05:33:03;;;;;;;18.75;7.68;;;0.60;99.90;;;;;;5044478;28;20487;-73
2021/03/25 05:35:37;;;;;;;22.48;8.35;;;0.60;99.90;;;;;;5051551;28;20072;-73
2021/03/25 05:38:03;;;;;;;20.65;7.50;;;0.70;99.90;;;;;;5051364;28;20044;-73
2021/03/25 05:40:33;;;;;;;19.80;8.52;;;0.70;99.90;;;;;;5051174;28;20029;-73
2021/03/25 05:43:08;;;;;;;19.33;8.85;;;0.80;99.90;;;;;;5050296;28;20032;-73
2021/03/25 05:45:52;;;;;;;22.35;9.25;;;0.80;99.90;;;;;;5048056;28;20094;-73
2021/03/25 05:48:39;;;;;;;23.10;9.48;;;0.80;99.90;;;;;;5049781;28;20029;-73
2021/03/25 05:51:27;;;;;;;19.38;9.55;;;0.80;99.90;;;;;;5050604;28;20125;-73
2021/03/25 05:54:04;;;;;;;19.83;8.95;;;0.90;99.90;;;;;;5050244;28;20052;-74
2021/03/25 05:56:49;;;;;;;21.73;9.55;;;1.00;99.90;;;;;;5050974;28;20198;-73
2021/03/25 05:59:18;;;;;;;22.60;8.93;;;1.20;99.90;;;;;;5051576;28;20033;-74
2021/03/25 06:02:09;;;;;;;24.77;8.93;;;1.40;99.90;;;;;;5050809;28;20033;-74
2021/03/25 06:04:36;;;;;;;20.17;9.73;;;1.50;99.90;;;;;;5038770;28;20040;-74
2021/03/25 06:07:36;;;;;;;23.42;9.30;;;1.70;99.90;;;;;;5033124;28;20025;-74
2021/03/25 06:10:01;;;;;;;19.65;8.50;;;1.90;99.90;;;;;;5042552;28;20108;-74
2021/03/25 06:12:53;;;;;;;20.35;8.98;;;2.00;99.90;;;;;;5040892;28;20131;-74
2021/03/25 06:15:53;;;;;;;22.08;9.15;;;2.20;99.90;;;;;;5046018;28;20021;-73
2021/03/25 06:18:40;;;;;;;20.75;9.48;;;2.40;99.90;;;;;;5045326;28;20063;-73
2021/03/25 06:21:24;;;;;;;18.05;8.80;;;2.60;99.90;;;;;;5041856;28;20028;-73
2021/03/25 06:24:20;;;;;;;28.20;10.73;;;2.70;99.90;;;;;;5041421;28;20087;-73
2021/03/25 06:27:24;;;;;;;22.58;9.90;;;2.90;99.90;;;;;;5041123;28;20036;-73
2021/03/25 06:29:54;;;;;;;24.35;10.60;;;3.10;99.90;;;;;;5042613;28;20031;-73
2021/03/25 06:32:31;;;;;;;23.02;9.93;;;3.30;99.90;;;;;;5045864;28;20500;-73
2021/03/25 06:35:08;;;;;;;25.17;9.98;;;3.40;99.90;;;;;;5042773;28;20071;-73
2021/03/25 06:37:43;;;;;;;20.48;9.02;;;3.50;99.90;;;;;;5044254;28;20017;-73
2021/03/25 06:40:24;;;;;;;17.20;9.18;;;3.60;99.90;;;;;;5046522;28;20033;-73
2021/03/25 06:43:10;;;;;;;15.77;8.90;;;3.80;99.90;;;;;;5042850;28;20483;-73
2021/03/25 06:45:45;;;;;;;23.20;9.27;;;4.00;99.90;;;;;;5042003;28;20041;-73
2021/03/25 06:48:35;;;;;;;22.47;10.23;;;4.10;99.90;;;;;;5043360;28;20036;-73
2021/03/25 06:51:17;;;;;;;19.05;9.18;;;4.30;99.90;;;;;;5044377;28;20685;-73
2021/03/25 06:53:43;;;;;;;21.42;9.23;;;4.60;99.90;;;;;;5038878;28;20021;-73
2021/03/25 06:56:14;;;;;;;24.02;10.95;;;4.80;99.90;;;;;;5042517;28;20029;-73
2021/03/25 06:58:55;;;;;;;21.60;10.82;;;5.10;99.90;;;;;;5043201;28;20484;-73
2021/03/25 07:01:44;;;;;;;23.02;10.52;;;5.30;99.90;;;;;;5043685;28;20079;-73
2021/03/25 07:04:31;;;;;;;22.10;10.75;;;5.60;99.90;;;;;;5040709;28;20033;-73
2021/03/25 07:07:03;;;;;;;26.48;12.52;;;5.80;99.90;;;;;;5045134;28;20081;-73
2021/03/25 07:09:33;;;;;;;23.90;10.75;;;6.00;99.90;;;;;;5043892;28;20183;-73
2021/03/25 07:12:03;;;;;;;23.48;11.32;;;6.10;99.90;;;;;;5039709;28;20029;-73
2021/03/25 07:14:43;;;;;;;22.13;11.90;;;6.30;99.90;;;;;;5038483;28;20029;-73
2021/03/25 07:17:13;;;;;;;20.20;10.07;;;6.50;99.90;;;;;;5040032;28;20492;-73
2021/03/25 07:19:41;;;;;;;20.63;11.07;;;6.80;99.90;;;;;;5038268;28;20033;-73
2021/03/25 07:22:20;;;;;;;20.95;10.18;;;6.70;99.90;;;;;;5040399;28;20029;-73
2021/03/25 07:24:48;;;;;;;23.15;11.52;;;6.90;99.90;;;;;;5041914;28;20065;-73
2021/03/25 07:27:23;;;;;;;25.80;10.60;;;7.10;99.90;;;;;;5041811;28;20098;-73
2021/03/25 07:30:03;;;;;;;26.45;11.57;;;7.40;99.90;;;;;;5040980;28;20045;-73
2021/03/25 07:32:52;;;;;;;23.50;11.02;;;7.60;99.90;;;;;;5036305;28;20040;-73
2021/03/25 07:35:31;;;;;;;19.83;9.90;;;7.80;99.90;;;;;;5039953;28;20021;-73
2021/03/25 07:38:01;;;;;;;22.55;11.00;;;8.00;99.90;;;;;;5040359;28;20071;-73
2021/03/25 07:40:32;;;;;;;20.20;10.10;;;8.20;99.90;;;;;;5035708;28;20033;-73
2021/03/25 07:43:24;;;;;;;21.25;11.07;;;8.40;99.90;;;;;;5043207;28;20026;-73
2021/03/25 07:46:06;;;;;;;24.63;11.05;;;8.50;99.90;;;;;;5042548;28;20151;-73
2021/03/25 07:48:32;;;;;;;18.38;9.68;;;8.50;99.90;;;;;;5042381;28;20021;-73
2021/03/25 07:51:10;;;;;;;24.30;10.82;;;8.50;99.90;;;;;;5041304;28;20075;-73
2021/03/25 07:53:38;;;;;;;26.27;10.40;;;8.50;99.90;;;;;;5026287;28;20087;-73
2021/03/25 07:56:11;;;;;;;20.83;10.50;;;8.50;99.90;;;;;;5032025;28;20021;-73
2021/03/25 07:58:42;;;;;;;23.45;10.98;;;8.50;99.90;;;;;;5043963;28;20033;-73
2021/03/25 08:01:14;;;;;;;21.73;11.02;;;8.70;99.90;;;;;;5048682;28;20443;-73
2021/03/25 08:03:53;;;;;;;20.23;10.02;;;8.80;99.90;;;;;;5042428;28;20033;-73
2021/03/25 08:06:41;;;;;;;20.30;9.98;;;9.00;99.90;;;;;;5052447;28;20052;-72
2021/03/25 08:09:12;;;;;;;21.75;10.15;;;9.10;99.90;;;;;;5043072;28;20492;-73
2021/03/25 08:11:53;;;;;;;17.80;9.60;;;9.20;99.90;;;;;;5048874;28;20143;-73
2021/03/25 08:14:21;;;;;;;22.95;10.38;;;9.20;99.90;;;;;;5047559;28;20028;-73
2021/03/25 08:16:51;;;;;;;25.83;11.95;;;9.20;99.90;;;;;;5049669;28;20013;-73
2021/03/25 08:19:41;;;;;;;26.48;10.80;;;9.30;99.90;;;;;;5046222;28;20061;-73
2021/03/25 08:22:34;;;;;;;22.23;10.05;;;9.30;99.90;;;;;;5038022;28;20108;-73
2021/03/25 08:25:12;;;;;;;21.30;10.10;;;9.30;99.90;;;;;;5037621;28;20036;-73
2021/03/25 08:27:58;;;;;;;19.75;11.18;;;9.40;99.90;;;;;;5041772;28;20021;-73
2021/03/25 08:30:38;;;;;;;23.08;10.75;;;9.40;99.90;;;;;;5044740;28;20033;-73
2021/03/25 08:33:12;;;;;;;20.05;10.38;;;9.50;99.90;;;;;;5048055;28;20553;-72
2021/03/25 08:35:46;;;;;;;21.63;10.50;;;9.60;99.90;;;;;;5048862;28;20031;-73
2021/03/25 08:38:49;;;;;;;21.45;10.50;;;9.70;99.90;;;;;;5045365;28;20115;-73
2021/03/25 08:41:41;;;;;;;22.48;10.18;;;9.70;99.90;;;;;;5042963;28;20044;-73
2021/03/25 08:44:18;;;;;;;20.60;9.98;;;9.80;99.90;;;;;;5042017;28;20101;-72
2021/03/25 08:47:13;;;;;;;23.40;10.57;;;9.70;99.90;;;;;;5042169;28;20017;-73
2021/03/25 08:50:08;;;;;;;19.38;9.55;;;9.90;99.90;;;;;;5050051;28;20029;-73
2021/03/25 08:52:38;;;;;;;26.38;9.88;;;10.00;99.90;;;;;;5040501;28;20373;-72
2021/03/25 08:55:38;;;;;;;23.17;10.32;;;10.10;99.90;;;;;;5037010;28;20554;-73
2021/03/25 08:58:13;;;;;;;21.02;9.30;;;10.20;99.90;;;;;;5039999;28;20047;-73
2021/03/25 09:00:41;;;;;;;20.48;8.82;;;10.30;99.90;;;;;;5039775;28;20029;-72
2021/03/25 09:03:25;;;;;;;21.05;9.95;;;10.30;99.90;;;;;;5050671;28;20025;-72
2021/03/25 09:06:19;;;;;;;20.08;9.40;;;10.40;99.90;;;;;;5049587;28;20025;-73
2021/03/25 09:08:47;;;;;;;19.13;9.90;;;10.50;99.90;;;;;;5046541;28;20048;-73
2021/03/25 09:11:16;;;;;;;20.13;9.82;;;10.60;99.90;;;;;;5038960;28;20029;-71
2021/03/25 09:13:50;;;;;;;21.15;8.77;;;10.70;99.90;;;;;;5048146;28;20025;-71
2021/03/25 09:16:31;;;;;;;21.85;9.50;;;10.90;99.90;;;;;;5047132;28;20051;-71
2021/03/25 09:18:59;;;;;;;18.75;9.63;;;10.90;99.90;;;;;;5047713;28;20033;-71
2021/03/25 09:21:28;;;;;;;18.25;9.38;;;11.00;99.90;;;;;;5047527;28;20032;-71
2021/03/25 09:23:59;;;;;;;18.00;8.85;;;11.00;99.90;;;;;;5048462;28;20582;-71
2021/03/25 09:26:25;;;;;;;21.33;9.13;;;11.10;99.90;;;;;;5048114;28;20033;-71
2021/03/25 09:29:00;;;;;;;18.45;9.15;;;11.30;99.90;;;;;;5049161;28;20033;-71
2021/03/25 09:31:39;;;;;;;18.23;8.73;;;11.40;99.90;;;;;;5048884;28;20036;-72
2021/03/25 09:34:11;;;;;;;18.98;8.13;;;11.50;99.90;;;;;;5049167;28;20480;-71
2021/03/25 09:36:37;;;;;;;20.05;9.32;;;11.60;99.90;;;;;;5048024;28;20700;-72
2021/03/25 09:39:03;;;;;;;16.25;7.70;;;11.70;99.90;;;;;;5047513;28;20033;-72
2021/03/25 09:41:29;;;;;;;15.77;7.95;;;11.80;99.90;;;;;;5045513;28;20024;-71
2021/03/25 09:44:18;;;;;;;16.65;8.73;;;11.90;99.90;;;;;;5048091;28;20068;-72
2021/03/25 09:47:09;;;;;;;14.27;7.13;;;12.00;99.90;;;;;;5048521;28;20029;-72
2021/03/25 09:49:43;;;;;;;18.33;7.72;;;12.30;99.90;;;;;;5043243;28;20024;-71
2021/03/25 09:52:12;;;;;;;15.45;7.82;;;12.40;99.90;;;;;;5047649;28;20086;-72
2021/03/25 09:54:37;;;;;;;15.68;7.65;;;12.50;99.90;;;;;;5048612;28;20083;-71
2021/03/25 10:00:05;;;;;;;16.92;7.60;;;12.80;99.90;;;;;;5048634;28;20450;-72
2021/03/25 10:02:42;;;;;;;17.63;8.00;;;12.80;97.20;;;;;;5038145;28;20029;-73
2021/03/25 10:05:24;;;;;;;18.75;7.85;;;12.80;99.90;;;;;;5026532;28;20650;-71
2021/03/25 10:08:10;;;;;;;19.25;8.23;;;12.90;98.50;;;;;;5031349;28;20443;-71
2021/03/25 10:10:38;;;;;;;16.85;7.70;;;12.90;97.30;;;;;;5023773;28;20725;-71
2021/03/25 10:13:04;;;;;;;16.85;8.00;;;13.00;99.90;;;;;;5027377;28;20060;-71
2021/03/25 10:15:42;;;;;;;16.38;7.60;;;13.20;99.30;;;;;;5037264;28;20021;-71
2021/03/25 10:18:31;;;;;;;19.50;8.30;;;13.40;99.20;;;;;;5046335;28;20380;-71
2021/03/25 10:21:00;;;;;;;16.60;7.65;;;13.60;95.90;;;;;;5046210;28;20595;-71
2021/03/25 10:23:34;;;;;;;15.45;6.75;;;13.50;94.90;;;;;;5047450;28;20484;-71
2021/03/25 10:26:09;;;;;;;16.20;7.33;;;13.60;97.10;;;;;;5047003;28;20407;-72
2021/03/25 10:28:46;;;;;;;15.88;6.45;;;13.80;94.20;;;;;;5047283;28;20036;-71
2021/03/25 10:31:25;;;;;;;11.65;6.05;;;14.00;93.30;;;;;;5032145;28;20040;-72
2021/03/25 10:33:55;;;;;;;14.68;6.68;;;14.00;90.10;;;;;;5027307;28;20029;-72
2021/03/25 10:36:27;;;;;;;18.60;7.07;;;14.10;91.50;;;;;;5043161;28;20047;-71
2021/03/25 10:38:59;;;;;;;14.15;7.22;;;14.20;90.00;;;;;;5046379;28;20036;-72
2021/03/25 10:41:32;;;;;;;15.07;6.88;;;14.30;91.20;;;;;;5046943;28;20035;-71
2021/03/25 10:43:57;;;;;;;15.32;6.40;;;14.20;89.50;;;;;;5047165;28;20032;-71
2021/03/25 10:46:32;;;;;;;18.15;6.70;;;14.20;90.40;;;;;;5046528;28;20078;-71
2021/03/25 10:49:00;;;;;;;12.45;5.68;;;14.10;84.00;;;;;;5047096;28;20109;-72
2021/03/25 10:51:27;;;;;;;10.73;5.20;;;14.10;89.60;;;;;;5047821;28;20506;-71
2021/03/25 10:53:56;;;;;;;14.52;5.28;;;14.20;89.50;;;;;;5048761;28;20033;-72
2021/03/25 10:56:33;;;;;;;10.82;5.47;;;14.30;86.80;;;;;;5049772;28;20395;-72
2021/03/25 10:59:18;;;;;;;11.18;5.47;;;14.40;87.50;;;;;;5049563;28;20040;-72
2021/03/25 11:01:58;;;;;;;11.30;5.27;;;14.50;83.40;;;;;;5050022;28;20028;-72
2021/03/25 11:04:34;;;;;;;12.48;4.68;;;14.60;85.30;;;;;;5049365;28;20032;-72
2021/03/25 11:07:18;;;;;;;10.35;4.47;;;14.90;87.60;;;;;;5041564;28;20033;-72
2021/03/25 11:09:59;;;;;;;14.20;5.20;;;15.10;85.40;;;;;;5033399;28;20056;-72
2021/03/25 11:12:35;;;;;;;14.63;6.00;;;15.10;78.30;;;;;;5042038;28;20124;-72
2021/03/25 11:15:24;;;;;;;11.73;4.70;;;15.20;78.70;;;;;;5039919;28;20060;-72
2021/03/25 11:17:51;;;;;;;9.13;4.65;;;15.30;78.90;;;;;;5034146;28;20037;-71
2021/03/25 11:20:20;;;;;;;10.77;5.32;;;15.40;80.40;;;;;;5039042;28;20053;-71
2021/03/25 11:22:46;;;;;;;15.27;6.10;;;15.50;77.90;;;;;;5032282;28;20033;-72
2021/03/25 11:25:26;;;;;;;11.95;5.28;;;15.60;72.70;;;;;;5046777;28;20040;-72
2021/03/25 11:27:58;;;;;;;12.57;5.18;;;15.60;79.20;;;;;;5049479;28;20108;-72
2021/03/25 11:30:37;;;;;;;11.05;5.88;;;15.60;80.70;;;;;;5045759;28;20085;-72
2021/03/25 11:33:21;;;;;;;10.40;5.03;;;15.60;77.00;;;;;;5052873;28;20082;-72
2021/03/25 11:35:47;;;;;;;9.30;4.78;;;15.50;72.80;;;;;;5045394;28;20026;-72
2021/03/25 11:38:34;;;;;;;12.55;4.60;;;15.60;72.20;;;;;;5052919;28;20028;-72
2021/03/25 11:41:05;;;;;;;12.90;5.13;;;15.60;73.80;;;;;;5051618;28;20078;-72
2021/03/25 11:44:06;;;;;;;11.90;5.70;;;15.70;73.00;;;;;;5053871;28;20028;-72
2021/03/25 11:46:33;;;;;;;9.90;4.85;;;15.60;70.50;;;;;;5048144;28;20083;-72
2021/03/25 11:49:14;;;;;;;13.48;5.22;;;15.60;72.40;;;;;;5053452;28;20021;-70
2021/03/25 11:51:46;;;;;;;9.73;4.85;;;15.70;72.90;;;;;;5049484;28;20033;-71
2021/03/25 11:54:32;;;;;;;12.43;5.35;;;15.70;70.60;;;;;;5051727;28;20086;-71
2021/03/25 11:57:03;;;;;;;;;;;15.70;70.90;;;;;;5049881;28;20029;-72
2021/03/25 11:59:34;;;;;;;12.30;5.22;;;15.70;70.50;;;;;;5053555;28;19908;-72
2021/03/25 12:02:21;;;;;;;13.93;5.82;;;15.80;72.20;;;;;;5047321;28;20036;-70
2021/03/25 12:04:48;;;;;;;8.60;4.53;;;15.80;70.80;;;;;;5038673;28;20040;-72
2021/03/25 12:07:15;;;;;;;10.52;4.68;;;15.90;69.40;;;;;;5030046;28;20048;-71
2021/03/25 12:10:00;;;;;;;11.60;5.03;;;16.00;69.30;;;;;;5038076;28;20644;-71
2021/03/25 12:12:27;;;;;;;12.10;5.70;;;16.20;73.20;;;;;;5041168;28;20036;-71
2021/03/25 12:14:53;;;;;;;14.77;4.68;;;16.30;69.40;;;;;;5048868;28;20025;-73
2021/03/25 12:17:19;;;;;;;10.30;4.85;;;16.30;71.70;;;;;;5048570;28;20384;-72
2021/03/25 12:19:45;;;;;;;9.35;4.43;;;16.40;68.60;;;;;;5043952;28;20032;-72
2021/03/25 12:22:31;;;;;;;8.13;4.25;;;16.40;67.70;;;;;;5047096;28;20475;-72
2021/03/25 12:24:57;;;;;;;8.68;4.35;;;16.40;68.30;;;;;;5040699;28;20044;-72
2021/03/25 12:27:27;;;;;;;10.02;4.88;;;16.50;65.50;;;;;;5040951;28;20037;-71
2021/03/25 12:29:54;;;;;;;6.85;3.67;;;16.50;65.70;;;;;;5037988;28;20052;-72
2021/03/25 12:32:27;;;;;;;8.07;4.55;;;16.50;65.70;;;;;;5038065;28;20036;-72
2021/03/25 12:34:53;;;;;;;7.22;4.07;;;16.60;64.40;;;;;;5037649;28;20057;-72
2021/03/25 12:37:22;;;;;;;8.27;4.25;;;16.70;64.80;;;;;;5039007;28;20503;-72
2021/03/25 12:39:53;;;;;;;8.10;4.13;;;16.70;62.70;;;;;;5039575;28;20701;-72
2021/03/25 12:42:19;;;;;;;9.43;4.22;;;16.70;62.90;;;;;;5037423;28;20583;-72
2021/03/25 12:44:45;;;;;;;9.35;4.00;;;16.80;62.00;;;;;;5043083;28;20038;-72
2021/03/25 12:47:11;;;;;;;6.35;3.70;;;16.80;63.30;;;;;;5049491;28;20028;-72
2021/03/25 12:49:38;;;;;;;7.13;4.00;;;16.90;62.00;;;;;;5048984;28;20037;-72
2021/03/25 12:52:04;;;;;;;8.10;3.85;;;17.00;59.50;;;;;;5047235;28;20119;-72
2021/03/25 12:54:30;;;;;;;7.28;3.40;;;17.10;62.30;;;;;;5049786;28;20091;-72
2021/03/25 12:57:00;;;;;;;9.25;3.92;;;17.20;60.80;;;;;;5048250;28;20044;-72
2021/03/25 12:59:26;;;;;;;11.63;4.70;;;17.10;60.50;;;;;;5049009;28;20573;-72
2021/03/25 13:01:52;;;;;;;8.55;3.58;;;16.90;56.90;;;;;;5048948;28;20040;-72
2021/03/25 13:04:19;;;;;;;10.48;4.50;;;16.80;61.70;;;;;;5048493;28;20086;-72
2021/03/25 13:06:44;;;;;;;8.27;3.80;;;16.80;61.50;;;;;;5048457;28;20446;-72
2021/03/25 13:09:10;;;;;;;11.30;4.18;;;16.80;61.30;;;;;;5046576;28;20033;-72
2021/03/25 13:11:36;;;;;;;8.73;3.17;;;16.90;58.60;;;;;;5027565;28;20041;-72
2021/03/25 13:14:03;;;;;;;11.32;4.30;;;16.70;57.90;;;;;;5028977;28;20128;-72
2021/03/25 13:16:29;;;;;;;7.07;3.78;;;16.70;60.80;;;;;;5028307;28;20036;-72
2021/03/25 13:18:55;;;;;;;7.60;3.83;;;17.00;60.50;;;;;;5028209;28;20040;-72
2021/03/25 13:21:21;;;;;;;9.02;4.00;;;17.10;60.10;;;;;;5027467;28;20034;-72
2021/03/25 13:23:46;;;;;;;6.03;3.22;;;17.40;58.80;;;;;;5027174;28;20404;-72
2021/03/25 13:26:13;;;;;;;7.93;3.60;;;17.60;60.30;;;;;;5026523;28;20044;-71
2021/03/25 13:28:41;;;;;;;8.93;4.15;;;17.70;58.30;;;;;;5028762;28;20052;-71
2021/03/25 13:31:09;;;;;;;11.25;4.63;;;17.70;56.20;;;;;;5040627;28;20194;-71